sensor_id;sensor_type;location;lat;lon;timestamp;P1;durP1;ratioP1;P2;durP2;ratioP2
36371;SDS011;22398;51.346;12.372;2023-02-15T00:00:45;41.17;;;16.90;;
36371;SDS011;22398;51.346;12.372;2023-02-15T00:05:48;48.03;;;18.10;;
36371;SDS011;22398;51.346;12.372;2023-02-15T00:10:52;43.97;;;17.02;;
36371;SDS011;22398;51.346;12.372;2023-02-15T00:16:06;38.20;;;16.33;;
36371;SDS011;22398;51.346;12.372;2023-02-15T00:26:15;41.00;;;16.55;;
36371;SDS011;22398;51.346;12.372;2023-02-15T00:31:19;47.45;;;16.65;;
36371;SDS011;22398;51.346;12.372;2023-02-15T00:36:23;44.20;;;19.20;;
36371;SDS011;22398;51.346;12.372;2023-02-15T00:41:27;39.28;;;16.08;;
36371;SDS011;22398;51.346;12.372;2023-02-15T00:46:31;36.92;;;13.98;;
36371;SDS011;22398;51.346;12.372;2023-02-15T00:51:35;33.33;;;14.23;;
36371;SDS011;22398;51.346;12.372;2023-02-15T00:56:40;32.95;;;14.63;;
36371;SDS011;22398;51.346;12.372;2023-02-15T01:01:44;31.15;;;14.93;;
36371;SDS011;22398;51.346;12.372;2023-02-15T01:06:47;33.58;;;14.98;;
36371;SDS011;22398;51.346;12.372;2023-02-15T01:11:52;38.00;;;14.43;;
36371;SDS011;22398;51.346;12.372;2023-02-15T01:16:56;28.50;;;14.35;;
36371;SDS011;22398;51.346;12.372;2023-02-15T01:21:59;35.20;;;14.93;;
36371;SDS011;22398;51.346;12.372;2023-02-15T01:27:04;34.40;;;14.45;;
36371;SDS011;22398;51.346;12.372;2023-02-15T01:32:08;38.37;;;16.47;;
36371;SDS011;22398;51.346;12.372;2023-02-15T01:37:11;37.05;;;15.27;;
36371;SDS011;22398;51.346;12.372;2023-02-15T01:42:21;32.22;;;14.40;;
36371;SDS011;22398;51.346;12.372;2023-02-15T01:47:26;33.83;;;14.43;;
36371;SDS011;22398;51.346;12.372;2023-02-15T01:52:36;32.25;;;14.73;;
36371;SDS011;22398;51.346;12.372;2023-02-15T01:57:43;29.58;;;12.88;;
36371;SDS011;22398;51.346;12.372;2023-02-15T02:02:48;24.30;;;11.98;;
36371;SDS011;22398;51.346;12.372;2023-02-15T02:07:59;30.20;;;13.52;;
36371;SDS011;22398;51.346;12.372;2023-02-15T02:13:06;27.55;;;13.10;;
36371;SDS011;22398;51.346;12.372;2023-02-15T02:18:15;30.67;;;12.48;;
36371;SDS011;22398;51.346;12.372;2023-02-15T02:23:30;33.53;;;14.32;;
36371;SDS011;22398;51.346;12.372;2023-02-15T02:28:59;26.80;;;13.55;;
36371;SDS011;22398;51.346;12.372;2023-02-15T02:34:20;27.25;;;12.27;;
36371;SDS011;22398;51.346;12.372;2023-02-15T02:39:32;28.17;;;12.63;;
36371;SDS011;22398;51.346;12.372;2023-02-15T02:44:43;31.83;;;12.38;;
36371;SDS011;22398;51.346;12.372;2023-02-15T02:49:51;28.13;;;11.65;;
36371;SDS011;22398;51.346;12.372;2023-02-15T02:54:55;26.95;;;11.30;;
36371;SDS011;22398;51.346;12.372;2023-02-15T03:00:00;27.35;;;13.25;;
36371;SDS011;22398;51.346;12.372;2023-02-15T03:05:12;27.33;;;11.68;;
36371;SDS011;22398;51.346;12.372;2023-02-15T03:10:20;28.95;;;12.20;;
36371;SDS011;22398;51.346;12.372;2023-02-15T03:15:26;22.58;;;11.30;;
36371;SDS011;22398;51.346;12.372;2023-02-15T03:20:51;26.77;;;11.23;;
36371;SDS011;22398;51.346;12.372;2023-02-15T03:25:56;21.55;;;10.30;;
36371;SDS011;22398;51.346;12.372;2023-02-15T03:31:06;25.05;;;10.70;;
36371;SDS011;22398;51.346;12.372;2023-02-15T03:36:15;28.00;;;10.60;;
36371;SDS011;22398;51.346;12.372;2023-02-15T03:41:24;23.63;;;10.75;;
36371;SDS011;22398;51.346;12.372;2023-02-15T03:46:31;22.27;;;10.40;;
36371;SDS011;22398;51.346;12.372;2023-02-15T03:51:40;23.83;;;12.30;;
36371;SDS011;22398;51.346;12.372;2023-02-15T03:56:48;28.42;;;10.65;;
36371;SDS011;22398;51.346;12.372;2023-02-15T04:02:14;24.48;;;11.25;;
36371;SDS011;22398;51.346;12.372;2023-02-15T04:07:23;24.00;;;11.20;;
36371;SDS011;22398;51.346;12.372;2023-02-15T04:12:27;27.20;;;10.45;;
36371;SDS011;22398;51.346;12.372;2023-02-15T04:17:31;25.65;;;11.25;;
36371;SDS011;22398;51.346;12.372;2023-02-15T04:22:36;26.50;;;11.23;;
36371;SDS011;22398;51.346;12.372;2023-02-15T04:27:57;27.23;;;11.27;;
36371;SDS011;22398;51.346;12.372;2023-02-15T04:33:01;24.70;;;11.35;;
36371;SDS011;22398;51.346;12.372;2023-02-15T04:38:06;25.77;;;11.25;;
36371;SDS011;22398;51.346;12.372;2023-02-15T04:43:10;25.77;;;11.95;;
36371;SDS011;22398;51.346;12.372;2023-02-15T04:48:13;18.80;;;9.15;;
36371;SDS011;22398;51.346;12.372;2023-02-15T04:53:18;20.83;;;9.88;;
36371;SDS011;22398;51.346;12.372;2023-02-15T04:58:22;19.83;;;9.98;;
36371;SDS011;22398;51.346;12.372;2023-02-15T05:03:25;22.52;;;10.13;;
36371;SDS011;22398;51.346;12.372;2023-02-15T05:08:30;20.17;;;9.60;;
36371;SDS011;22398;51.346;12.372;2023-02-15T05:13:34;20.48;;;8.68;;
36371;SDS011;22398;51.346;12.372;2023-02-15T05:18:38;20.48;;;10.02;;
36371;SDS011;22398;51.346;12.372;2023-02-15T05:23:42;23.00;;;8.75;;
36371;SDS011;22398;51.346;12.372;2023-02-15T05:28:46;17.08;;;9.00;;
36371;SDS011;22398;51.346;12.372;2023-02-15T05:33:50;19.27;;;9.02;;
36371;SDS011;22398;51.346;12.372;2023-02-15T05:38:55;26.20;;;10.13;;
36371;SDS011;22398;51.346;12.372;2023-02-15T05:43:59;23.27;;;10.33;;
36371;SDS011;22398;51.346;12.372;2023-02-15T05:49:02;17.15;;;7.82;;
36371;SDS011;22398;51.346;12.372;2023-02-15T05:54:07;23.10;;;9.52;;
36371;SDS011;22398;51.346;12.372;2023-02-15T05:59:11;20.20;;;9.05;;
36371;SDS011;22398;51.346;12.372;2023-02-15T06:04:16;22.92;;;10.93;;
36371;SDS011;22398;51.346;12.372;2023-02-15T06:09:21;18.00;;;8.55;;
36371;SDS011;22398;51.346;12.372;2023-02-15T06:14:25;20.40;;;9.67;;
36371;SDS011;22398;51.346;12.372;2023-02-15T06:19:28;23.38;;;10.25;;
36371;SDS011;22398;51.346;12.372;2023-02-15T06:24:33;20.23;;;9.88;;
36371;SDS011;22398;51.346;12.372;2023-02-15T06:29:37;27.50;;;10.27;;
36371;SDS011;22398;51.346;12.372;2023-02-15T06:34:41;28.50;;;10.15;;
36371;SDS011;22398;51.346;12.372;2023-02-15T06:39:46;21.48;;;9.73;;
36371;SDS011;22398;51.346;12.372;2023-02-15T06:44:49;22.50;;;9.95;;
36371;SDS011;22398;51.346;12.372;2023-02-15T06:49:53;25.92;;;10.57;;
36371;SDS011;22398;51.346;12.372;2023-02-15T06:54:58;17.27;;;7.80;;
36371;SDS011;22398;51.346;12.372;2023-02-15T07:00:02;19.35;;;8.65;;
36371;SDS011;22398;51.346;12.372;2023-02-15T07:05:07;18.50;;;8.60;;
36371;SDS011;22398;51.346;12.372;2023-02-15T07:10:12;22.27;;;8.65;;
36371;SDS011;22398;51.346;12.372;2023-02-15T07:15:16;20.03;;;9.13;;
36371;SDS011;22398;51.346;12.372;2023-02-15T07:20:22;16.15;;;8.27;;
36371;SDS011;22398;51.346;12.372;2023-02-15T07:25:27;18.35;;;9.52;;
36371;SDS011;22398;51.346;12.372;2023-02-15T07:30:30;18.17;;;8.85;;
36371;SDS011;22398;51.346;12.372;2023-02-15T07:35:34;22.45;;;8.02;;
36371;SDS011;22398;51.346;12.372;2023-02-15T07:40:38;13.30;;;7.65;;
36371;SDS011;22398;51.346;12.372;2023-02-15T07:45:42;12.97;;;7.30;;
36371;SDS011;22398;51.346;12.372;2023-02-15T07:50:45;15.55;;;7.00;;
36371;SDS011;22398;51.346;12.372;2023-02-15T07:55:50;15.77;;;7.13;;
36371;SDS011;22398;51.346;12.372;2023-02-15T08:00:55;15.57;;;7.27;;
36371;SDS011;22398;51.346;12.372;2023-02-15T08:06:03;15.30;;;6.40;;
36371;SDS011;22398;51.346;12.372;2023-02-15T08:11:13;15.80;;;7.15;;
36371;SDS011;22398;51.346;12.372;2023-02-15T08:16:31;17.38;;;7.45;;
36371;SDS011;22398;51.346;12.372;2023-02-15T08:21:37;10.80;;;6.05;;
36371;SDS011;22398;51.346;12.372;2023-02-15T08:26:43;13.30;;;6.85;;
36371;SDS011;22398;51.346;12.372;2023-02-15T08:31:48;10.38;;;5.90;;
36371;SDS011;22398;51.346;12.372;2023-02-15T08:36:52;12.70;;;6.47;;
36371;SDS011;22398;51.346;12.372;2023-02-15T08:41:56;10.93;;;6.20;;
36371;SDS011;22398;51.346;12.372;2023-02-15T08:47:00;13.02;;;5.82;;
36371;SDS011;22398;51.346;12.372;2023-02-15T08:52:05;13.02;;;6.60;;
36371;SDS011;22398;51.346;12.372;2023-02-15T08:57:10;12.77;;;5.90;;
36371;SDS011;22398;51.346;12.372;2023-02-15T09:02:14;13.38;;;5.75;;
36371;SDS011;22398;51.346;12.372;2023-02-15T09:07:18;15.13;;;5.53;;
36371;SDS011;22398;51.346;12.372;2023-02-15T09:12:22;10.95;;;5.82;;
36371;SDS011;22398;51.346;12.372;2023-02-15T09:17:26;9.57;;;5.87;;
36371;SDS011;22398;51.346;12.372;2023-02-15T09:22:29;11.82;;;5.75;;
36371;SDS011;22398;51.346;12.372;2023-02-15T09:27:34;14.00;;;5.22;;
36371;SDS011;22398;51.346;12.372;2023-02-15T09:32:37;9.48;;;5.15;;
36371;SDS011;22398;51.346;12.372;2023-02-15T09:37:41;13.60;;;5.15;;
36371;SDS011;22398;51.346;12.372;2023-02-15T09:42:51;11.30;;;6.03;;
36371;SDS011;22398;51.346;12.372;2023-02-15T09:48:10;13.80;;;5.30;;
36371;SDS011;22398;51.346;12.372;2023-02-15T09:53:39;12.57;;;5.72;;
36371;SDS011;22398;51.346;12.372;2023-02-15T09:59:00;13.32;;;5.50;;
36371;SDS011;22398;51.346;12.372;2023-02-15T10:04:17;9.40;;;5.18;;
36371;SDS011;22398;51.346;12.372;2023-02-15T10:09:36;10.30;;;5.30;;
36371;SDS011;22398;51.346;12.372;2023-02-15T10:14:50;10.38;;;5.30;;
36371;SDS011;22398;51.346;12.372;2023-02-15T10:20:12;8.57;;;4.63;;
36371;SDS011;22398;51.346;12.372;2023-02-15T10:25:27;12.70;;;4.80;;
36371;SDS011;22398;51.346;12.372;2023-02-15T10:30:41;10.70;;;4.82;;
36371;SDS011;22398;51.346;12.372;2023-02-15T10:35:51;16.08;;;5.55;;
36371;SDS011;22398;51.346;12.372;2023-02-15T10:41:05;9.77;;;5.53;;
36371;SDS011;22398;51.346;12.372;2023-02-15T10:51:34;12.70;;;5.15;;
36371;SDS011;22398;51.346;12.372;2023-02-15T10:56:47;7.68;;;4.07;;
36371;SDS011;22398;51.346;12.372;2023-02-15T11:02:01;14.27;;;5.28;;
36371;SDS011;22398;51.346;12.372;2023-02-15T11:07:15;13.68;;;5.72;;
36371;SDS011;22398;51.346;12.372;2023-02-15T11:12:22;9.50;;;5.28;;
36371;SDS011;22398;51.346;12.372;2023-02-15T11:17:30;12.98;;;5.05;;
36371;SDS011;22398;51.346;12.372;2023-02-15T11:22:39;8.85;;;4.75;;
36371;SDS011;22398;51.346;12.372;2023-02-15T11:27:42;12.15;;;4.82;;
36371;SDS011;22398;51.346;12.372;2023-02-15T11:32:50;8.38;;;4.22;;
36371;SDS011;22398;51.346;12.372;2023-02-15T11:38:01;9.60;;;4.47;;
36371;SDS011;22398;51.346;12.372;2023-02-15T11:43:11;11.20;;;5.20;;
36371;SDS011;22398;51.346;12.372;2023-02-15T11:48:23;13.00;;;5.45;;
36371;SDS011;22398;51.346;12.372;2023-02-15T11:53:26;8.73;;;5.07;;
36371;SDS011;22398;51.346;12.372;2023-02-15T11:58:37;15.25;;;5.45;;
36371;SDS011;22398;51.346;12.372;2023-02-15T12:03:49;9.70;;;4.68;;
36371;SDS011;22398;51.346;12.372;2023-02-15T12:08:57;13.93;;;5.38;;
36371;SDS011;22398;51.346;12.372;2023-02-15T12:14:06;13.27;;;5.22;;
36371;SDS011;22398;51.346;12.372;2023-02-15T12:24:37;12.57;;;6.60;;
36371;SDS011;22398;51.346;12.372;2023-02-15T12:29:47;9.73;;;4.88;;
36371;SDS011;22398;51.346;12.372;2023-02-15T12:34:55;9.68;;;5.32;;
36371;SDS011;22398;51.346;12.372;2023-02-15T12:40:18;9.57;;;4.70;;
36371;SDS011;22398;51.346;12.372;2023-02-15T12:45:24;13.13;;;5.30;;
36371;SDS011;22398;51.346;12.372;2023-02-15T12:50:33;8.98;;;5.38;;
36371;SDS011;22398;51.346;12.372;2023-02-15T12:55:36;13.80;;;5.68;;
36371;SDS011;22398;51.346;12.372;2023-02-15T13:00:46;7.63;;;3.40;;
36371;SDS011;22398;51.346;12.372;2023-02-15T13:05:51;8.77;;;4.22;;
36371;SDS011;22398;51.346;12.372;2023-02-15T13:10:58;8.82;;;4.10;;
36371;SDS011;22398;51.346;12.372;2023-02-15T13:16:05;12.20;;;3.88;;
36371;SDS011;22398;51.346;12.372;2023-02-15T13:21:19;5.63;;;3.08;;
36371;SDS011;22398;51.346;12.372;2023-02-15T13:26:26;9.35;;;3.53;;
36371;SDS011;22398;51.346;12.372;2023-02-15T13:31:34;8.73;;;2.95;;
36371;SDS011;22398;51.346;12.372;2023-02-15T13:36:44;11.97;;;3.70;;
36371;SDS011;22398;51.346;12.372;2023-02-15T13:41:53;6.78;;;3.42;;
36371;SDS011;22398;51.346;12.372;2023-02-15T13:47:04;8.02;;;3.58;;
36371;SDS011;22398;51.346;12.372;2023-02-15T13:52:21;10.88;;;3.60;;
36371;SDS011;22398;51.346;12.372;2023-02-15T13:57:40;5.13;;;3.35;;
36371;SDS011;22398;51.346;12.372;2023-02-15T14:03:04;6.93;;;3.05;;
36371;SDS011;22398;51.346;12.372;2023-02-15T14:08:42;12.52;;;3.20;;
36371;SDS011;22398;51.346;12.372;2023-02-15T14:14:00;8.05;;;3.30;;
36371;SDS011;22398;51.346;12.372;2023-02-15T14:24:32;6.10;;;2.90;;
36371;SDS011;22398;51.346;12.372;2023-02-15T14:29:49;5.38;;;3.15;;
36371;SDS011;22398;51.346;12.372;2023-02-15T14:34:57;7.78;;;3.47;;
36371;SDS011;22398;51.346;12.372;2023-02-15T14:40:06;9.20;;;2.90;;
36371;SDS011;22398;51.346;12.372;2023-02-15T14:45:41;7.30;;;2.70;;
36371;SDS011;22398;51.346;12.372;2023-02-15T14:50:51;5.05;;;2.85;;
36371;SDS011;22398;51.346;12.372;2023-02-15T15:01:28;4.72;;;2.58;;
36371;SDS011;22398;51.346;12.372;2023-02-15T15:06:34;6.30;;;3.38;;
36371;SDS011;22398;51.346;12.372;2023-02-15T15:16:50;5.07;;;2.90;;
36371;SDS011;22398;51.346;12.372;2023-02-15T15:21:54;4.70;;;2.33;;
36371;SDS011;22398;51.346;12.372;2023-02-15T15:32:37;8.95;;;3.15;;
36371;SDS011;22398;51.346;12.372;2023-02-15T15:37:46;7.78;;;3.25;;
36371;SDS011;22398;51.346;12.372;2023-02-15T15:49:01;8.40;;;3.35;;
36371;SDS011;22398;51.346;12.372;2023-02-15T15:54:12;8.38;;;3.83;;
36371;SDS011;22398;51.346;12.372;2023-02-15T15:59:20;7.30;;;4.45;;
36371;SDS011;22398;51.346;12.372;2023-02-15T16:04:29;6.75;;;4.38;;
36371;SDS011;22398;51.346;12.372;2023-02-15T16:09:33;5.93;;;3.72;;
36371;SDS011;22398;51.346;12.372;2023-02-15T16:14:38;9.48;;;4.88;;
36371;SDS011;22398;51.346;12.372;2023-02-15T16:19:45;9.35;;;4.55;;
36371;SDS011;22398;51.346;12.372;2023-02-15T16:24:54;7.60;;;3.95;;
36371;SDS011;22398;51.346;12.372;2023-02-15T16:30:19;9.35;;;4.65;;
36371;SDS011;22398;51.346;12.372;2023-02-15T16:35:29;12.90;;;5.10;;
36371;SDS011;22398;51.346;12.372;2023-02-15T16:40:45;14.90;;;5.32;;
36371;SDS011;22398;51.346;12.372;2023-02-15T16:45:55;8.35;;;4.28;;
36371;SDS011;22398;51.346;12.372;2023-02-15T16:51:07;11.20;;;4.82;;
36371;SDS011;22398;51.346;12.372;2023-02-15T16:56:11;10.27;;;5.00;;
36371;SDS011;22398;51.346;12.372;2023-02-15T17:01:15;17.65;;;5.35;;
36371;SDS011;22398;51.346;12.372;2023-02-15T17:06:21;14.15;;;5.00;;
36371;SDS011;22398;51.346;12.372;2023-02-15T17:11:33;11.93;;;6.00;;
36371;SDS011;22398;51.346;12.372;2023-02-15T17:16:40;15.60;;;6.13;;
36371;SDS011;22398;51.346;12.372;2023-02-15T17:21:49;11.02;;;5.53;;
36371;SDS011;22398;51.346;12.372;2023-02-15T17:26:55;12.88;;;5.60;;
36371;SDS011;22398;51.346;12.372;2023-02-15T17:32:02;11.55;;;5.40;;
36371;SDS011;22398;51.346;12.372;2023-02-15T17:37:10;10.73;;;4.78;;
36371;SDS011;22398;51.346;12.372;2023-02-15T17:42:15;13.90;;;5.68;;
36371;SDS011;22398;51.346;12.372;2023-02-15T17:47:19;14.10;;;6.75;;
36371;SDS011;22398;51.346;12.372;2023-02-15T17:52:27;15.40;;;6.75;;
36371;SDS011;22398;51.346;12.372;2023-02-15T17:57:32;17.88;;;6.78;;
36371;SDS011;22398;51.346;12.372;2023-02-15T18:02:35;20.30;;;7.45;;
36371;SDS011;22398;51.346;12.372;2023-02-15T18:07:57;14.57;;;6.72;;
36371;SDS011;22398;51.346;12.372;2023-02-15T18:13:19;16.88;;;6.97;;
36371;SDS011;22398;51.346;12.372;2023-02-15T18:18:22;15.38;;;7.63;;
36371;SDS011;22398;51.346;12.372;2023-02-15T18:23:27;12.38;;;7.03;;
36371;SDS011;22398;51.346;12.372;2023-02-15T18:28:31;14.57;;;7.40;;
36371;SDS011;22398;51.346;12.372;2023-02-15T18:33:35;14.68;;;7.53;;
36371;SDS011;22398;51.346;12.372;2023-02-15T18:38:42;16.48;;;7.53;;
36371;SDS011;22398;51.346;12.372;2023-02-15T18:43:45;14.10;;;7.83;;
36371;SDS011;22398;51.346;12.372;2023-02-15T18:48:50;13.57;;;6.57;;
36371;SDS011;22398;51.346;12.372;2023-02-15T18:53:55;19.60;;;8.07;;
36371;SDS011;22398;51.346;12.372;2023-02-15T18:58:58;27.43;;;8.60;;
36371;SDS011;22398;51.346;12.372;2023-02-15T19:04:02;19.63;;;7.85;;
36371;SDS011;22398;51.346;12.372;2023-02-15T19:09:08;19.08;;;8.35;;
36371;SDS011;22398;51.346;12.372;2023-02-15T19:14:24;15.52;;;8.27;;
36371;SDS011;22398;51.346;12.372;2023-02-15T19:19:28;19.77;;;8.93;;
36371;SDS011;22398;51.346;12.372;2023-02-15T19:24:35;13.98;;;7.80;;
36371;SDS011;22398;51.346;12.372;2023-02-15T19:29:41;19.35;;;8.65;;
36371;SDS011;22398;51.346;12.372;2023-02-15T19:34:45;19.48;;;9.68;;
36371;SDS011;22398;51.346;12.372;2023-02-15T19:39:53;19.13;;;9.73;;
36371;SDS011;22398;51.346;12.372;2023-02-15T19:44:56;18.40;;;9.60;;
36371;SDS011;22398;51.346;12.372;2023-02-15T19:49:59;18.00;;;9.77;;
36371;SDS011;22398;51.346;12.372;2023-02-15T19:55:05;18.92;;;10.38;;
36371;SDS011;22398;51.346;12.372;2023-02-15T20:00:17;17.38;;;10.18;;
36371;SDS011;22398;51.346;12.372;2023-02-15T20:05:23;19.70;;;9.65;;
36371;SDS011;22398;51.346;12.372;2023-02-15T20:10:29;17.02;;;8.65;;
36371;SDS011;22398;51.346;12.372;2023-02-15T20:15:33;13.50;;;7.63;;
36371;SDS011;22398;51.346;12.372;2023-02-15T20:20:39;19.50;;;7.87;;
36371;SDS011;22398;51.346;12.372;2023-02-15T20:25:45;16.20;;;7.55;;
36371;SDS011;22398;51.346;12.372;2023-02-15T20:30:49;16.60;;;7.30;;
36371;SDS011;22398;51.346;12.372;2023-02-15T20:35:53;15.18;;;6.82;;
36371;SDS011;22398;51.346;12.372;2023-02-15T20:40:58;12.93;;;6.57;;
36371;SDS011;22398;51.346;12.372;2023-02-15T20:46:20;15.45;;;6.93;;
36371;SDS011;22398;51.346;12.372;2023-02-15T20:51:24;17.58;;;7.35;;
36371;SDS011;22398;51.346;12.372;2023-02-15T20:56:29;18.90;;;8.65;;
36371;SDS011;22398;51.346;12.372;2023-02-15T21:01:34;15.52;;;6.93;;
36371;SDS011;22398;51.346;12.372;2023-02-15T21:06:37;17.73;;;7.75;;
36371;SDS011;22398;51.346;12.372;2023-02-15T21:11:43;18.15;;;7.88;;
36371;SDS011;22398;51.346;12.372;2023-02-15T21:16:47;15.10;;;7.22;;
36371;SDS011;22398;51.346;12.372;2023-02-15T21:21:51;23.17;;;9.07;;
36371;SDS011;22398;51.346;12.372;2023-02-15T21:26:57;17.77;;;8.35;;
36371;SDS011;22398;51.346;12.372;2023-02-15T21:32:03;16.38;;;7.18;;
36371;SDS011;22398;51.346;12.372;2023-02-15T21:37:10;17.45;;;7.82;;
36371;SDS011;22398;51.346;12.372;2023-02-15T21:42:29;17.17;;;8.07;;
36371;SDS011;22398;51.346;12.372;2023-02-15T21:47:50;13.40;;;7.10;;
36371;SDS011;22398;51.346;12.372;2023-02-15T21:52:54;15.38;;;7.35;;
36371;SDS011;22398;51.346;12.372;2023-02-15T21:58:00;15.07;;;7.72;;
36371;SDS011;22398;51.346;12.372;2023-02-15T22:03:04;16.08;;;7.70;;
36371;SDS011;22398;51.346;12.372;2023-02-15T22:08:09;16.65;;;7.90;;
36371;SDS011;22398;51.346;12.372;2023-02-15T22:13:18;23.15;;;7.88;;
36371;SDS011;22398;51.346;12.372;2023-02-15T22:18:24;16.88;;;7.95;;
36371;SDS011;22398;51.346;12.372;2023-02-15T22:23:33;22.50;;;9.13;;
36371;SDS011;22398;51.346;12.372;2023-02-15T22:28:38;17.08;;;8.55;;
36371;SDS011;22398;51.346;12.372;2023-02-15T22:33:43;20.25;;;9.30;;
36371;SDS011;22398;51.346;12.372;2023-02-15T22:38:46;12.35;;;6.82;;
36371;SDS011;22398;51.346;12.372;2023-02-15T22:43:51;16.25;;;7.43;;
36371;SDS011;22398;51.346;12.372;2023-02-15T22:48:54;18.77;;;7.57;;
36371;SDS011;22398;51.346;12.372;2023-02-15T22:53:57;16.52;;;7.30;;
36371;SDS011;22398;51.346;12.372;2023-02-15T22:59:03;15.95;;;8.10;;
36371;SDS011;22398;51.346;12.372;2023-02-15T23:04:10;15.43;;;7.20;;
36371;SDS011;22398;51.346;12.372;2023-02-15T23:09:19;19.10;;;8.23;;
36371;SDS011;22398;51.346;12.372;2023-02-15T23:14:26;16.70;;;7.53;;
36371;SDS011;22398;51.346;12.372;2023-02-15T23:19:33;17.70;;;7.50;;
36371;SDS011;22398;51.346;12.372;2023-02-15T23:24:37;21.08;;;8.25;;
36371;SDS011;22398;51.346;12.372;2023-02-15T23:29:42;16.83;;;7.55;;
36371;SDS011;22398;51.346;12.372;2023-02-15T23:34:45;14.48;;;8.13;;
36371;SDS011;22398;51.346;12.372;2023-02-15T23:39:50;13.65;;;7.32;;
36371;SDS011;22398;51.346;12.372;2023-02-15T23:45:17;13.98;;;6.70;;
36371;SDS011;22398;51.346;12.372;2023-02-15T23:50:25;14.95;;;7.20;;
36371;SDS011;22398;51.346;12.372;2023-02-15T23:55:32;23.70;;;8.05;;
